メインページ
METAR-TAF:

METAR-TAF

空港 :

ヘルシンキ, フィンランド

ヘルシンキ・ヴァンター国際空港

緯度: 60-19N, 経度: 024-58E, 海抜: 51m

現時点の気象観測

当レポートは15分前の15:20(UTC)に作成
南/南西の風 20kt
気温 15°C
湿度 67%
気圧 996 hPa
視程10km以上
高度2500ftの雲は散在している
高度5000ftの雲は散在している

METAR: EFHK 251520Z 21020KT 9999 SCT025 SCT050 15/09 Q0996 NOSIG

時間: 18:35 (15:35 UTC)

予報

当レポートは1時間10分前の14:25(UTC)に作成
予報は25日の 15時(UTC)から 26日の 15時(UTC)まで有効
南西の風 18kt
視程10km以上
高度3000ftの雲は散在している
確率 30% :
25日の 15時(UTC)から 25日の 19時(UTC)まで一時的に
高度3500ftの雲は散在している, 積乱雲.
25日の 17時(UTC)から 25日の 19時(UTC)まで徐々に
南/南西の風 7kt
確率 30% :
26日の 01時(UTC)から 26日の 04時(UTC)まで一時的に
視程: 3000m
26日の 05時(UTC)から 26日の 15時(UTC)まで一時的に
高度3500ftの雲は散在している, 積乱雲.
にわか雨
確率 40% :
26日の 05時(UTC)から 26日の 15時(UTC)まで一時的に
激しい雷雨

TAF: EFHK 251425Z 2515/2615 22018KT 9999 SCT030 PROB30 TEMPO 2515/2519 SCT035CB BECMG 2517/2519 21007KT PROB30 TEMPO 2601/2604 3000 BR TEMPO 2605/2615 SHRA SCT035CB PROB40 TEMPO 2605/2615 TS

4,000以上の空港の気象観測と天気予報(METAR報とTAF報)

利用可能な観測所は地図上に黄色い丸と赤い丸で示す。

丸の上にカーソルを重ねると観測所名を参照できる。

次にクリックすると気象観測と天気予報を参照できる。

マップの切り替え:黒色「×」印の緑ボタンをクリックして拡大、「-」印の緑ボタンをクリックして縮小、緑色の三角印をクリックして隣りの地図に切り替え


METAR-TAF: